sensor_id;sensor_type;location;lat;lon;timestamp;P1;durP1;ratioP1;P2;durP2;ratioP2
74124;SDS011;62475;52.192;5.396;2023-04-25T00:00:33;18.50;;;3.60;;
74124;SDS011;62475;52.192;5.396;2023-04-25T00:02:58;16.67;;;4.30;;
74124;SDS011;62475;52.192;5.396;2023-04-25T00:05:24;17.38;;;4.55;;
74124;SDS011;62475;52.192;5.396;2023-04-25T00:07:51;14.95;;;4.60;;
74124;SDS011;62475;52.192;5.396;2023-04-25T00:10:16;22.55;;;4.55;;
74124;SDS011;62475;52.192;5.396;2023-04-25T00:12:42;22.45;;;4.53;;
74124;SDS011;62475;52.192;5.396;2023-04-25T00:15:07;12.68;;;3.58;;
74124;SDS011;62475;52.192;5.396;2023-04-25T00:17:33;16.65;;;4.43;;
74124;SDS011;62475;52.192;5.396;2023-04-25T00:20:00;16.38;;;4.40;;
74124;SDS011;62475;52.192;5.396;2023-04-25T00:22:26;16.05;;;4.03;;
74124;SDS011;62475;52.192;5.396;2023-04-25T00:24:51;13.75;;;3.95;;
74124;SDS011;62475;52.192;5.396;2023-04-25T00:27:18;18.35;;;3.67;;
74124;SDS011;62475;52.192;5.396;2023-04-25T00:29:43;16.27;;;3.92;;
74124;SDS011;62475;52.192;5.396;2023-04-25T00:32:09;15.23;;;3.87;;
74124;SDS011;62475;52.192;5.396;2023-04-25T00:34:34;14.90;;;3.75;;
74124;SDS011;62475;52.192;5.396;2023-04-25T00:37:00;14.65;;;3.72;;
74124;SDS011;62475;52.192;5.396;2023-04-25T00:39:27;11.57;;;3.83;;
74124;SDS011;62475;52.192;5.396;2023-04-25T00:41:52;16.63;;;3.70;;
74124;SDS011;62475;52.192;5.396;2023-04-25T00:44:19;16.27;;;3.83;;
74124;SDS011;62475;52.192;5.396;2023-04-25T00:46:46;16.83;;;4.68;;
74124;SDS011;62475;52.192;5.396;2023-04-25T00:49:13;11.65;;;3.47;;
74124;SDS011;62475;52.192;5.396;2023-04-25T00:51:40;14.55;;;3.58;;
74124;SDS011;62475;52.192;5.396;2023-04-25T00:54:08;16.60;;;3.35;;
74124;SDS011;62475;52.192;5.396;2023-04-25T00:56:34;12.85;;;3.10;;
74124;SDS011;62475;52.192;5.396;2023-04-25T00:59:00;19.88;;;4.28;;
74124;SDS011;62475;52.192;5.396;2023-04-25T01:01:25;12.90;;;3.03;;
74124;SDS011;62475;52.192;5.396;2023-04-25T01:03:51;16.05;;;3.58;;
74124;SDS011;62475;52.192;5.396;2023-04-25T01:06:18;14.60;;;3.00;;
74124;SDS011;62475;52.192;5.396;2023-04-25T01:08:44;12.25;;;2.80;;
74124;SDS011;62475;52.192;5.396;2023-04-25T01:11:10;10.73;;;3.00;;
74124;SDS011;62475;52.192;5.396;2023-04-25T01:13:35;13.85;;;3.30;;
74124;SDS011;62475;52.192;5.396;2023-04-25T01:16:01;12.43;;;3.50;;
74124;SDS011;62475;52.192;5.396;2023-04-25T01:18:27;11.48;;;3.40;;
74124;SDS011;62475;52.192;5.396;2023-04-25T01:20:53;10.13;;;3.55;;
74124;SDS011;62475;52.192;5.396;2023-04-25T01:23:22;12.38;;;4.22;;
74124;SDS011;62475;52.192;5.396;2023-04-25T01:28:14;10.90;;;3.50;;
74124;SDS011;62475;52.192;5.396;2023-04-25T01:30:40;15.70;;;3.95;;
74124;SDS011;62475;52.192;5.396;2023-04-25T01:33:06;10.43;;;3.40;;
74124;SDS011;62475;52.192;5.396;2023-04-25T01:35:32;13.52;;;4.03;;
74124;SDS011;62475;52.192;5.396;2023-04-25T01:37:58;11.23;;;3.30;;
74124;SDS011;62475;52.192;5.396;2023-04-25T01:40:24;7.68;;;2.58;;
74124;SDS011;62475;52.192;5.396;2023-04-25T01:42:50;14.77;;;3.70;;
74124;SDS011;62475;52.192;5.396;2023-04-25T01:45:17;13.05;;;3.70;;
74124;SDS011;62475;52.192;5.396;2023-04-25T01:47:43;13.77;;;3.38;;
74124;SDS011;62475;52.192;5.396;2023-04-25T01:50:13;11.38;;;3.15;;
74124;SDS011;62475;52.192;5.396;2023-04-25T01:52:40;12.55;;;3.03;;
74124;SDS011;62475;52.192;5.396;2023-04-25T01:55:06;9.35;;;2.70;;
74124;SDS011;62475;52.192;5.396;2023-04-25T01:57:33;10.23;;;2.80;;
74124;SDS011;62475;52.192;5.396;2023-04-25T01:59:59;10.85;;;2.95;;
74124;SDS011;62475;52.192;5.396;2023-04-25T02:02:28;7.20;;;2.40;;
74124;SDS011;62475;52.192;5.396;2023-04-25T02:04:53;10.40;;;2.90;;
74124;SDS011;62475;52.192;5.396;2023-04-25T02:07:21;12.68;;;3.17;;
74124;SDS011;62475;52.192;5.396;2023-04-25T02:09:46;7.60;;;2.83;;
74124;SDS011;62475;52.192;5.396;2023-04-25T02:12:12;9.60;;;2.53;;
74124;SDS011;62475;52.192;5.396;2023-04-25T02:14:37;12.10;;;2.70;;
74124;SDS011;62475;52.192;5.396;2023-04-25T02:17:03;10.43;;;2.72;;
74124;SDS011;62475;52.192;5.396;2023-04-25T02:19:28;9.10;;;2.40;;
74124;SDS011;62475;52.192;5.396;2023-04-25T02:21:55;8.25;;;2.30;;
74124;SDS011;62475;52.192;5.396;2023-04-25T02:24:22;10.57;;;2.85;;
74124;SDS011;62475;52.192;5.396;2023-04-25T02:26:49;9.77;;;2.25;;
74124;SDS011;62475;52.192;5.396;2023-04-25T02:29:14;14.80;;;2.58;;
74124;SDS011;62475;52.192;5.396;2023-04-25T02:31:40;8.10;;;2.50;;
74124;SDS011;62475;52.192;5.396;2023-04-25T02:34:05;7.32;;;2.83;;
74124;SDS011;62475;52.192;5.396;2023-04-25T02:36:30;7.40;;;2.30;;
74124;SDS011;62475;52.192;5.396;2023-04-25T02:38:59;7.60;;;2.50;;
74124;SDS011;62475;52.192;5.396;2023-04-25T02:41:25;11.52;;;2.47;;
74124;SDS011;62475;52.192;5.396;2023-04-25T02:43:50;13.23;;;3.35;;
74124;SDS011;62475;52.192;5.396;2023-04-25T02:46:15;10.10;;;2.70;;
74124;SDS011;62475;52.192;5.396;2023-04-25T02:48:41;10.97;;;2.63;;
74124;SDS011;62475;52.192;5.396;2023-04-25T02:51:06;13.40;;;2.63;;
74124;SDS011;62475;52.192;5.396;2023-04-25T02:53:32;14.23;;;3.25;;
74124;SDS011;62475;52.192;5.396;2023-04-25T02:55:58;6.40;;;2.33;;
74124;SDS011;62475;52.192;5.396;2023-04-25T02:58:24;10.48;;;2.67;;
74124;SDS011;62475;52.192;5.396;2023-04-25T03:00:49;9.88;;;2.60;;
74124;SDS011;62475;52.192;5.396;2023-04-25T03:03:15;11.45;;;2.83;;
74124;SDS011;62475;52.192;5.396;2023-04-25T03:05:42;9.52;;;2.58;;
74124;SDS011;62475;52.192;5.396;2023-04-25T03:08:08;14.13;;;3.10;;
74124;SDS011;62475;52.192;5.396;2023-04-25T03:10:34;12.00;;;2.47;;
74124;SDS011;62475;52.192;5.396;2023-04-25T03:12:59;15.25;;;3.20;;
74124;SDS011;62475;52.192;5.396;2023-04-25T03:15:25;11.95;;;3.38;;
74124;SDS011;62475;52.192;5.396;2023-04-25T03:17:52;11.20;;;2.85;;
74124;SDS011;62475;52.192;5.396;2023-04-25T03:20:18;15.05;;;3.13;;
74124;SDS011;62475;52.192;5.396;2023-04-25T03:22:43;9.55;;;2.92;;
74124;SDS011;62475;52.192;5.396;2023-04-25T03:25:09;13.63;;;2.95;;
74124;SDS011;62475;52.192;5.396;2023-04-25T03:27:34;15.40;;;3.00;;
74124;SDS011;62475;52.192;5.396;2023-04-25T03:30:00;10.70;;;2.97;;
74124;SDS011;62475;52.192;5.396;2023-04-25T03:32:25;10.00;;;3.17;;
74124;SDS011;62475;52.192;5.396;2023-04-25T03:34:50;8.50;;;2.78;;
74124;SDS011;62475;52.192;5.396;2023-04-25T03:37:16;11.97;;;3.20;;
74124;SDS011;62475;52.192;5.396;2023-04-25T03:39:41;15.77;;;3.38;;
74124;SDS011;62475;52.192;5.396;2023-04-25T03:42:06;11.77;;;3.55;;
74124;SDS011;62475;52.192;5.396;2023-04-25T03:44:35;9.82;;;2.90;;
74124;SDS011;62475;52.192;5.396;2023-04-25T03:47:02;9.77;;;2.95;;
74124;SDS011;62475;52.192;5.396;2023-04-25T03:49:28;11.25;;;3.05;;
74124;SDS011;62475;52.192;5.396;2023-04-25T03:51:53;15.00;;;3.17;;
74124;SDS011;62475;52.192;5.396;2023-04-25T03:54:20;11.60;;;3.13;;
74124;SDS011;62475;52.192;5.396;2023-04-25T03:56:47;12.25;;;3.60;;
74124;SDS011;62475;52.192;5.396;2023-04-25T03:59:15;11.32;;;2.83;;
74124;SDS011;62475;52.192;5.396;2023-04-25T04:01:40;7.90;;;2.70;;
74124;SDS011;62475;52.192;5.396;2023-04-25T04:04:05;8.80;;;2.53;;
74124;SDS011;62475;52.192;5.396;2023-04-25T04:06:31;11.30;;;2.13;;
74124;SDS011;62475;52.192;5.396;2023-04-25T04:08:56;6.85;;;2.90;;
74124;SDS011;62475;52.192;5.396;2023-04-25T04:11:21;14.43;;;2.20;;
74124;SDS011;62475;52.192;5.396;2023-04-25T04:13:47;8.38;;;2.28;;
74124;SDS011;62475;52.192;5.396;2023-04-25T04:16:12;6.15;;;1.88;;
74124;SDS011;62475;52.192;5.396;2023-04-25T04:18:37;9.40;;;1.58;;
74124;SDS011;62475;52.192;5.396;2023-04-25T04:21:03;9.20;;;1.95;;
74124;SDS011;62475;52.192;5.396;2023-04-25T04:23:28;7.10;;;1.40;;
74124;SDS011;62475;52.192;5.396;2023-04-25T04:25:54;3.58;;;1.30;;
74124;SDS011;62475;52.192;5.396;2023-04-25T04:28:20;5.72;;;1.30;;
74124;SDS011;62475;52.192;5.396;2023-04-25T04:30:45;5.60;;;1.10;;
74124;SDS011;62475;52.192;5.396;2023-04-25T04:33:14;3.97;;;1.42;;
74124;SDS011;62475;52.192;5.396;2023-04-25T04:35:44;2.53;;;1.00;;
74124;SDS011;62475;52.192;5.396;2023-04-25T04:38:09;6.32;;;1.42;;
74124;SDS011;62475;52.192;5.396;2023-04-25T04:40:40;8.32;;;1.80;;
74124;SDS011;62475;52.192;5.396;2023-04-25T04:43:09;2.35;;;0.95;;
74124;SDS011;62475;52.192;5.396;2023-04-25T04:45:35;5.00;;;1.65;;
74124;SDS011;62475;52.192;5.396;2023-04-25T04:48:01;3.42;;;1.17;;
74124;SDS011;62475;52.192;5.396;2023-04-25T04:50:26;3.30;;;1.40;;
74124;SDS011;62475;52.192;5.396;2023-04-25T04:52:52;3.47;;;1.10;;
74124;SDS011;62475;52.192;5.396;2023-04-25T04:55:17;4.13;;;1.27;;
74124;SDS011;62475;52.192;5.396;2023-04-25T04:57:42;6.25;;;1.60;;
74124;SDS011;62475;52.192;5.396;2023-04-25T05:00:08;3.13;;;1.20;;
74124;SDS011;62475;52.192;5.396;2023-04-25T05:02:36;7.63;;;2.15;;
74124;SDS011;62475;52.192;5.396;2023-04-25T05:05:03;7.97;;;1.60;;
74124;SDS011;62475;52.192;5.396;2023-04-25T05:07:30;10.88;;;1.80;;
74124;SDS011;62475;52.192;5.396;2023-04-25T05:09:55;6.05;;;1.60;;
74124;SDS011;62475;52.192;5.396;2023-04-25T05:12:20;7.95;;;1.85;;
74124;SDS011;62475;52.192;5.396;2023-04-25T05:14:46;8.73;;;1.90;;
74124;SDS011;62475;52.192;5.396;2023-04-25T05:17:11;5.80;;;1.70;;
74124;SDS011;62475;52.192;5.396;2023-04-25T05:19:36;7.53;;;1.80;;
74124;SDS011;62475;52.192;5.396;2023-04-25T05:22:02;3.63;;;1.70;;
74124;SDS011;62475;52.192;5.396;2023-04-25T05:24:27;10.18;;;1.92;;
74124;SDS011;62475;52.192;5.396;2023-04-25T05:26:52;9.30;;;1.83;;
74124;SDS011;62475;52.192;5.396;2023-04-25T05:29:18;7.68;;;2.42;;
74124;SDS011;62475;52.192;5.396;2023-04-25T05:31:44;7.85;;;2.00;;
74124;SDS011;62475;52.192;5.396;2023-04-25T05:34:10;5.30;;;1.75;;
74124;SDS011;62475;52.192;5.396;2023-04-25T05:36:36;5.33;;;1.93;;
74124;SDS011;62475;52.192;5.396;2023-04-25T05:39:01;8.35;;;2.03;;
74124;SDS011;62475;52.192;5.396;2023-04-25T05:41:29;6.07;;;1.77;;
74124;SDS011;62475;52.192;5.396;2023-04-25T05:43:54;6.00;;;1.60;;
74124;SDS011;62475;52.192;5.396;2023-04-25T05:46:19;4.13;;;1.65;;
74124;SDS011;62475;52.192;5.396;2023-04-25T05:48:45;6.05;;;2.13;;
74124;SDS011;62475;52.192;5.396;2023-04-25T05:51:11;9.23;;;1.88;;
74124;SDS011;62475;52.192;5.396;2023-04-25T05:53:37;13.38;;;1.95;;
74124;SDS011;62475;52.192;5.396;2023-04-25T05:56:02;4.45;;;1.73;;
74124;SDS011;62475;52.192;5.396;2023-04-25T05:58:27;4.63;;;1.80;;
74124;SDS011;62475;52.192;5.396;2023-04-25T06:00:53;8.15;;;1.80;;
74124;SDS011;62475;52.192;5.396;2023-04-25T06:03:19;7.95;;;2.05;;
74124;SDS011;62475;52.192;5.396;2023-04-25T06:05:45;9.63;;;1.58;;
74124;SDS011;62475;52.192;5.396;2023-04-25T06:08:10;8.53;;;1.87;;
74124;SDS011;62475;52.192;5.396;2023-04-25T06:10:37;5.95;;;1.33;;
74124;SDS011;62475;52.192;5.396;2023-04-25T06:13:03;4.40;;;1.27;;
74124;SDS011;62475;52.192;5.396;2023-04-25T06:15:29;4.80;;;1.42;;
74124;SDS011;62475;52.192;5.396;2023-04-25T06:17:57;10.07;;;2.15;;
74124;SDS011;62475;52.192;5.396;2023-04-25T06:20:22;6.30;;;1.88;;
74124;SDS011;62475;52.192;5.396;2023-04-25T06:22:49;5.45;;;1.10;;
74124;SDS011;62475;52.192;5.396;2023-04-25T06:25:15;4.68;;;1.40;;
74124;SDS011;62475;52.192;5.396;2023-04-25T06:27:41;5.25;;;1.27;;
74124;SDS011;62475;52.192;5.396;2023-04-25T06:30:06;4.30;;;1.45;;
74124;SDS011;62475;52.192;5.396;2023-04-25T06:32:32;4.28;;;1.52;;
74124;SDS011;62475;52.192;5.396;2023-04-25T06:34:59;8.93;;;1.60;;
74124;SDS011;62475;52.192;5.396;2023-04-25T06:37:25;8.82;;;1.55;;
74124;SDS011;62475;52.192;5.396;2023-04-25T06:39:50;7.57;;;1.75;;
74124;SDS011;62475;52.192;5.396;2023-04-25T06:42:15;4.32;;;1.55;;
74124;SDS011;62475;52.192;5.396;2023-04-25T06:44:41;7.47;;;1.60;;
74124;SDS011;62475;52.192;5.396;2023-04-25T06:47:06;9.82;;;2.08;;
74124;SDS011;62475;52.192;5.396;2023-04-25T06:49:31;4.70;;;1.37;;
74124;SDS011;62475;52.192;5.396;2023-04-25T06:51:57;6.60;;;2.03;;
74124;SDS011;62475;52.192;5.396;2023-04-25T06:54:22;8.17;;;1.43;;
74124;SDS011;62475;52.192;5.396;2023-04-25T06:56:47;7.93;;;1.27;;
74124;SDS011;62475;52.192;5.396;2023-04-25T06:59:13;5.78;;;1.30;;
74124;SDS011;62475;52.192;5.396;2023-04-25T07:01:38;14.47;;;1.63;;
74124;SDS011;62475;52.192;5.396;2023-04-25T07:04:03;5.65;;;1.08;;
74124;SDS011;62475;52.192;5.396;2023-04-25T07:06:29;3.95;;;1.00;;
74124;SDS011;62475;52.192;5.396;2023-04-25T07:08:54;8.82;;;1.60;;
74124;SDS011;62475;52.192;5.396;2023-04-25T07:11:20;5.07;;;1.40;;
74124;SDS011;62475;52.192;5.396;2023-04-25T07:13:46;6.35;;;1.23;;
74124;SDS011;62475;52.192;5.396;2023-04-25T07:16:11;4.10;;;1.40;;
74124;SDS011;62475;52.192;5.396;2023-04-25T07:18:36;4.82;;;1.00;;
74124;SDS011;62475;52.192;5.396;2023-04-25T07:21:04;4.20;;;0.82;;
74124;SDS011;62475;52.192;5.396;2023-04-25T07:23:30;4.15;;;0.95;;
74124;SDS011;62475;52.192;5.396;2023-04-25T07:25:55;6.55;;;1.23;;
74124;SDS011;62475;52.192;5.396;2023-04-25T07:28:21;6.25;;;1.45;;
74124;SDS011;62475;52.192;5.396;2023-04-25T07:30:46;8.88;;;1.15;;
74124;SDS011;62475;52.192;5.396;2023-04-25T07:33:12;8.75;;;1.17;;
74124;SDS011;62475;52.192;5.396;2023-04-25T07:35:37;4.63;;;0.82;;
74124;SDS011;62475;52.192;5.396;2023-04-25T07:38:02;9.02;;;0.93;;
74124;SDS011;62475;52.192;5.396;2023-04-25T07:40:28;5.85;;;1.05;;
74124;SDS011;62475;52.192;5.396;2023-04-25T07:42:54;12.32;;;1.00;;
74124;SDS011;62475;52.192;5.396;2023-04-25T07:45:19;5.75;;;1.52;;
74124;SDS011;62475;52.192;5.396;2023-04-25T07:47:44;5.63;;;0.80;;
74124;SDS011;62475;52.192;5.396;2023-04-25T07:50:10;5.13;;;0.90;;
74124;SDS011;62475;52.192;5.396;2023-04-25T07:52:38;7.35;;;1.50;;
74124;SDS011;62475;52.192;5.396;2023-04-25T07:55:03;4.72;;;0.80;;
74124;SDS011;62475;52.192;5.396;2023-04-25T07:57:29;5.43;;;1.13;;
74124;SDS011;62475;52.192;5.396;2023-04-25T07:59:55;6.90;;;0.80;;
74124;SDS011;62475;52.192;5.396;2023-04-25T08:02:20;4.65;;;0.93;;
74124;SDS011;62475;52.192;5.396;2023-04-25T08:04:45;4.43;;;0.83;;
74124;SDS011;62475;52.192;5.396;2023-04-25T08:07:14;5.45;;;1.38;;
74124;SDS011;62475;52.192;5.396;2023-04-25T08:09:40;6.10;;;1.00;;
74124;SDS011;62475;52.192;5.396;2023-04-25T08:12:05;8.48;;;1.50;;
74124;SDS011;62475;52.192;5.396;2023-04-25T08:14:30;3.63;;;0.70;;
74124;SDS011;62475;52.192;5.396;2023-04-25T08:17:00;2.90;;;0.95;;
74124;SDS011;62475;52.192;5.396;2023-04-25T08:19:29;4.80;;;0.68;;
74124;SDS011;62475;52.192;5.396;2023-04-25T08:21:55;3.03;;;0.77;;
74124;SDS011;62475;52.192;5.396;2023-04-25T08:24:21;4.10;;;0.77;;
74124;SDS011;62475;52.192;5.396;2023-04-25T08:26:47;4.38;;;0.60;;
74124;SDS011;62475;52.192;5.396;2023-04-25T08:29:12;2.22;;;0.93;;
74124;SDS011;62475;52.192;5.396;2023-04-25T08:31:37;2.35;;;0.63;;
74124;SDS011;62475;52.192;5.396;2023-04-25T08:34:03;3.95;;;0.60;;
74124;SDS011;62475;52.192;5.396;2023-04-25T08:36:28;5.72;;;0.88;;
74124;SDS011;62475;52.192;5.396;2023-04-25T08:38:53;3.42;;;0.80;;
74124;SDS011;62475;52.192;5.396;2023-04-25T08:41:19;6.85;;;0.85;;
74124;SDS011;62475;52.192;5.396;2023-04-25T08:43:45;4.20;;;0.75;;
74124;SDS011;62475;52.192;5.396;2023-04-25T08:46:13;4.07;;;0.82;;
74124;SDS011;62475;52.192;5.396;2023-04-25T08:48:43;5.38;;;0.88;;
74124;SDS011;62475;52.192;5.396;2023-04-25T08:51:10;2.65;;;0.63;;
74124;SDS011;62475;52.192;5.396;2023-04-25T08:53:43;2.55;;;1.10;;
74124;SDS011;62475;52.192;5.396;2023-04-25T08:56:12;4.43;;;0.85;;
74124;SDS011;62475;52.192;5.396;2023-04-25T08:58:41;4.35;;;0.73;;
74124;SDS011;62475;52.192;5.396;2023-04-25T09:01:07;4.85;;;1.00;;
74124;SDS011;62475;52.192;5.396;2023-04-25T09:03:32;5.57;;;0.93;;
74124;SDS011;62475;52.192;5.396;2023-04-25T09:05:59;3.25;;;0.70;;
74124;SDS011;62475;52.192;5.396;2023-04-25T09:08:24;6.35;;;0.65;;
74124;SDS011;62475;52.192;5.396;2023-04-25T09:10:49;3.55;;;0.50;;
74124;SDS011;62475;52.192;5.396;2023-04-25T09:13:20;2.67;;;1.00;;
74124;SDS011;62475;52.192;5.396;2023-04-25T09:15:51;5.97;;;0.82;;
74124;SDS011;62475;52.192;5.396;2023-04-25T09:18:22;3.15;;;0.85;;
74124;SDS011;62475;52.192;5.396;2023-04-25T09:21:07;7.70;;;0.88;;
74124;SDS011;62475;52.192;5.396;2023-04-25T09:23:44;1.92;;;0.60;;
74124;SDS011;62475;52.192;5.396;2023-04-25T09:26:13;4.72;;;0.70;;
74124;SDS011;62475;52.192;5.396;2023-04-25T09:28:40;9.43;;;1.20;;
74124;SDS011;62475;52.192;5.396;2023-04-25T09:31:07;5.22;;;0.95;;
74124;SDS011;62475;52.192;5.396;2023-04-25T09:33:36;5.05;;;0.55;;
74124;SDS011;62475;52.192;5.396;2023-04-25T09:36:06;3.35;;;0.82;;
74124;SDS011;62475;52.192;5.396;2023-04-25T09:38:38;3.88;;;0.82;;
74124;SDS011;62475;52.192;5.396;2023-04-25T09:41:06;5.72;;;1.00;;
74124;SDS011;62475;52.192;5.396;2023-04-25T09:43:32;4.13;;;0.70;;
74124;SDS011;62475;52.192;5.396;2023-04-25T09:45:57;4.85;;;0.65;;
74124;SDS011;62475;52.192;5.396;2023-04-25T09:48:25;2.47;;;0.85;;
74124;SDS011;62475;52.192;5.396;2023-04-25T09:51:11;4.28;;;0.90;;
74124;SDS011;62475;52.192;5.396;2023-04-25T09:53:39;3.58;;;0.50;;
74124;SDS011;62475;52.192;5.396;2023-04-25T09:56:08;6.47;;;0.85;;
74124;SDS011;62475;52.192;5.396;2023-04-25T09:58:35;2.75;;;0.70;;
74124;SDS011;62475;52.192;5.396;2023-04-25T10:01:02;3.28;;;0.57;;
74124;SDS011;62475;52.192;5.396;2023-04-25T10:03:29;2.72;;;0.47;;
74124;SDS011;62475;52.192;5.396;2023-04-25T10:05:57;4.32;;;0.73;;
74124;SDS011;62475;52.192;5.396;2023-04-25T10:08:24;3.75;;;0.70;;
74124;SDS011;62475;52.192;5.396;2023-04-25T10:10:53;4.90;;;0.73;;
74124;SDS011;62475;52.192;5.396;2023-04-25T10:13:20;2.53;;;0.70;;
74124;SDS011;62475;52.192;5.396;2023-04-25T10:15:45;5.47;;;1.00;;
74124;SDS011;62475;52.192;5.396;2023-04-25T10:18:13;3.83;;;1.15;;
74124;SDS011;62475;52.192;5.396;2023-04-25T10:20:38;6.35;;;0.82;;
74124;SDS011;62475;52.192;5.396;2023-04-25T10:23:11;4.35;;;1.02;;
74124;SDS011;62475;52.192;5.396;2023-04-25T10:25:38;4.40;;;1.02;;
74124;SDS011;62475;52.192;5.396;2023-04-25T10:28:05;5.07;;;0.85;;
74124;SDS011;62475;52.192;5.396;2023-04-25T10:30:30;5.95;;;0.75;;
74124;SDS011;62475;52.192;5.396;2023-04-25T10:32:56;3.80;;;0.70;;
74124;SDS011;62475;52.192;5.396;2023-04-25T10:35:29;3.35;;;0.50;;
74124;SDS011;62475;52.192;5.396;2023-04-25T10:40:30;3.58;;;0.55;;
74124;SDS011;62475;52.192;5.396;2023-04-25T10:42:57;4.00;;;0.70;;
74124;SDS011;62475;52.192;5.396;2023-04-25T10:45:53;4.10;;;0.98;;
74124;SDS011;62475;52.192;5.396;2023-04-25T10:48:28;2.53;;;0.57;;
74124;SDS011;62475;52.192;5.396;2023-04-25T10:51:10;5.45;;;0.70;;
74124;SDS011;62475;52.192;5.396;2023-04-25T10:53:37;5.75;;;0.88;;
74124;SDS011;62475;52.192;5.396;2023-04-25T10:56:18;3.38;;;0.63;;
74124;SDS011;62475;52.192;5.396;2023-04-25T10:58:45;4.32;;;0.80;;
74124;SDS011;62475;52.192;5.396;2023-04-25T11:01:12;4.93;;;0.63;;
74124;SDS011;62475;52.192;5.396;2023-04-25T11:03:41;3.70;;;0.68;;
74124;SDS011;62475;52.192;5.396;2023-04-25T11:06:15;3.97;;;1.10;;
74124;SDS011;62475;52.192;5.396;2023-04-25T11:08:48;3.58;;;0.95;;
74124;SDS011;62475;52.192;5.396;2023-04-25T11:11:18;5.22;;;0.80;;
74124;SDS011;62475;52.192;5.396;2023-04-25T11:13:47;6.28;;;1.10;;
74124;SDS011;62475;52.192;5.396;2023-04-25T11:16:13;6.68;;;1.20;;
74124;SDS011;62475;52.192;5.396;2023-04-25T11:18:40;4.65;;;1.23;;
74124;SDS011;62475;52.192;5.396;2023-04-25T11:21:07;5.35;;;1.20;;
74124;SDS011;62475;52.192;5.396;2023-04-25T11:23:32;4.88;;;1.30;;
74124;SDS011;62475;52.192;5.396;2023-04-25T11:25:57;1.88;;;0.75;;
74124;SDS011;62475;52.192;5.396;2023-04-25T11:28:26;2.40;;;0.85;;
74124;SDS011;62475;52.192;5.396;2023-04-25T11:30:52;5.93;;;0.98;;
74124;SDS011;62475;52.192;5.396;2023-04-25T11:33:17;4.57;;;1.00;;
74124;SDS011;62475;52.192;5.396;2023-04-25T11:35:43;2.60;;;0.63;;
74124;SDS011;62475;52.192;5.396;2023-04-25T11:38:08;3.63;;;1.13;;
74124;SDS011;62475;52.192;5.396;2023-04-25T11:40:35;3.28;;;0.70;;
74124;SDS011;62475;52.192;5.396;2023-04-25T11:43:01;3.83;;;0.82;;
74124;SDS011;62475;52.192;5.396;2023-04-25T11:45:27;4.55;;;0.90;;
74124;SDS011;62475;52.192;5.396;2023-04-25T11:47:55;7.07;;;0.88;;
74124;SDS011;62475;52.192;5.396;2023-04-25T11:50:20;2.20;;;0.85;;
74124;SDS011;62475;52.192;5.396;2023-04-25T11:52:46;2.80;;;0.80;;
74124;SDS011;62475;52.192;5.396;2023-04-25T11:55:15;4.97;;;0.80;;
74124;SDS011;62475;52.192;5.396;2023-04-25T11:57:42;1.50;;;0.73;;
74124;SDS011;62475;52.192;5.396;2023-04-25T12:02:41;6.10;;;1.05;;
74124;SDS011;62475;52.192;5.396;2023-04-25T12:05:09;6.20;;;1.75;;
74124;SDS011;62475;52.192;5.396;2023-04-25T12:07:36;2.70;;;0.75;;
74124;SDS011;62475;52.192;5.396;2023-04-25T12:10:13;3.25;;;0.70;;
74124;SDS011;62475;52.192;5.396;2023-04-25T12:12:44;1.73;;;0.60;;
74124;SDS011;62475;52.192;5.396;2023-04-25T12:15:14;7.07;;;0.68;;
74124;SDS011;62475;52.192;5.396;2023-04-25T12:17:44;5.03;;;0.90;;
74124;SDS011;62475;52.192;5.396;2023-04-25T12:20:17;2.92;;;0.90;;
74124;SDS011;62475;52.192;5.396;2023-04-25T12:22:45;3.30;;;0.60;;
74124;SDS011;62475;52.192;5.396;2023-04-25T12:25:12;5.28;;;1.08;;
74124;SDS011;62475;52.192;5.396;2023-04-25T12:28:08;2.60;;;0.98;;
74124;SDS011;62475;52.192;5.396;2023-04-25T12:30:59;4.38;;;0.50;;
74124;SDS011;62475;52.192;5.396;2023-04-25T12:33:27;3.78;;;0.82;;
74124;SDS011;62475;52.192;5.396;2023-04-25T12:35:54;7.50;;;0.98;;
74124;SDS011;62475;52.192;5.396;2023-04-25T12:38:20;3.15;;;0.60;;
74124;SDS011;62475;52.192;5.396;2023-04-25T12:40:48;2.15;;;0.73;;
74124;SDS011;62475;52.192;5.396;2023-04-25T12:43:13;2.85;;;0.63;;
74124;SDS011;62475;52.192;5.396;2023-04-25T12:45:38;3.70;;;1.00;;
74124;SDS011;62475;52.192;5.396;2023-04-25T12:48:04;2.30;;;0.38;;
74124;SDS011;62475;52.192;5.396;2023-04-25T12:50:30;2.05;;;0.45;;
74124;SDS011;62475;52.192;5.396;2023-04-25T12:52:55;7.10;;;0.85;;
74124;SDS011;62475;52.192;5.396;2023-04-25T12:55:22;4.63;;;1.00;;
74124;SDS011;62475;52.192;5.396;2023-04-25T12:57:47;3.63;;;0.95;;
74124;SDS011;62475;52.192;5.396;2023-04-25T13:00:13;2.50;;;0.50;;
74124;SDS011;62475;52.192;5.396;2023-04-25T13:02:39;5.35;;;0.63;;
74124;SDS011;62475;52.192;5.396;2023-04-25T13:05:05;3.13;;;0.70;;
74124;SDS011;62475;52.192;5.396;2023-04-25T13:07:31;2.60;;;0.95;;
74124;SDS011;62475;52.192;5.396;2023-04-25T13:09:56;1.65;;;0.70;;
74124;SDS011;62475;52.192;5.396;2023-04-25T13:12:21;5.82;;;1.10;;
74124;SDS011;62475;52.192;5.396;2023-04-25T13:14:47;3.28;;;0.80;;
74124;SDS011;62475;52.192;5.396;2023-04-25T13:17:12;2.63;;;0.73;;
74124;SDS011;62475;52.192;5.396;2023-04-25T13:19:38;2.65;;;0.73;;
74124;SDS011;62475;52.192;5.396;2023-04-25T13:22:04;4.43;;;1.08;;
74124;SDS011;62475;52.192;5.396;2023-04-25T13:24:30;2.65;;;0.50;;
74124;SDS011;62475;52.192;5.396;2023-04-25T13:26:55;4.63;;;0.73;;
74124;SDS011;62475;52.192;5.396;2023-04-25T13:29:21;2.60;;;0.60;;
74124;SDS011;62475;52.192;5.396;2023-04-25T13:31:46;2.33;;;0.70;;
74124;SDS011;62475;52.192;5.396;2023-04-25T13:34:11;3.10;;;0.60;;
74124;SDS011;62475;52.192;5.396;2023-04-25T13:36:37;3.55;;;0.65;;
74124;SDS011;62475;52.192;5.396;2023-04-25T13:39:03;6.38;;;1.20;;
74124;SDS011;62475;52.192;5.396;2023-04-25T13:41:29;3.47;;;0.73;;
74124;SDS011;62475;52.192;5.396;2023-04-25T13:43:55;1.48;;;0.50;;
74124;SDS011;62475;52.192;5.396;2023-04-25T13:46:20;1.33;;;0.50;;
74124;SDS011;62475;52.192;5.396;2023-04-25T13:48:46;4.07;;;1.00;;
74124;SDS011;62475;52.192;5.396;2023-04-25T13:51:13;4.30;;;1.02;;
74124;SDS011;62475;52.192;5.396;2023-04-25T13:53:40;6.75;;;0.80;;
74124;SDS011;62475;52.192;5.396;2023-04-25T13:56:05;4.05;;;0.80;;
74124;SDS011;62475;52.192;5.396;2023-04-25T13:58:31;4.00;;;1.00;;
74124;SDS011;62475;52.192;5.396;2023-04-25T14:00:57;4.82;;;0.75;;
74124;SDS011;62475;52.192;5.396;2023-04-25T14:03:22;4.78;;;1.10;;
74124;SDS011;62475;52.192;5.396;2023-04-25T14:05:47;5.72;;;0.85;;
74124;SDS011;62475;52.192;5.396;2023-04-25T14:08:13;3.70;;;1.05;;
74124;SDS011;62475;52.192;5.396;2023-04-25T14:10:38;4.93;;;0.93;;
74124;SDS011;62475;52.192;5.396;2023-04-25T14:13:04;6.60;;;1.23;;
74124;SDS011;62475;52.192;5.396;2023-04-25T14:15:32;2.08;;;0.73;;
74124;SDS011;62475;52.192;5.396;2023-04-25T14:17:57;3.22;;;1.48;;
74124;SDS011;62475;52.192;5.396;2023-04-25T14:20:23;4.18;;;0.80;;
74124;SDS011;62475;52.192;5.396;2023-04-25T14:22:48;3.70;;;0.95;;
74124;SDS011;62475;52.192;5.396;2023-04-25T14:25:14;3.67;;;0.98;;
74124;SDS011;62475;52.192;5.396;2023-04-25T14:27:40;6.00;;;1.23;;
74124;SDS011;62475;52.192;5.396;2023-04-25T14:30:06;3.23;;;0.77;;
74124;SDS011;62475;52.192;5.396;2023-04-25T14:32:34;6.80;;;1.40;;
74124;SDS011;62475;52.192;5.396;2023-04-25T14:35:02;5.88;;;1.00;;
74124;SDS011;62475;52.192;5.396;2023-04-25T14:37:27;4.15;;;0.95;;
74124;SDS011;62475;52.192;5.396;2023-04-25T14:39:53;6.20;;;0.82;;
74124;SDS011;62475;52.192;5.396;2023-04-25T14:42:18;2.63;;;0.83;;
74124;SDS011;62475;52.192;5.396;2023-04-25T14:44:43;4.63;;;0.75;;
74124;SDS011;62475;52.192;5.396;2023-04-25T14:47:10;3.53;;;1.02;;
74124;SDS011;62475;52.192;5.396;2023-04-25T14:49:36;4.80;;;0.85;;